sensor_id;sensor_type;location;lat;lon;timestamp;P1;durP1;ratioP1;P2;durP2;ratioP2
4186;SDS011;2107;52.306;10.484;2023-09-12T00:01:18;0.00;;;0.00;;
4186;SDS011;2107;52.306;10.484;2023-09-12T00:03:45;0.00;;;0.00;;
4186;SDS011;2107;52.306;10.484;2023-09-12T00:06:13;0.00;;;0.00;;
4186;SDS011;2107;52.306;10.484;2023-09-12T00:08:40;0.00;;;0.00;;
4186;SDS011;2107;52.306;10.484;2023-09-12T00:11:08;0.00;;;0.00;;
4186;SDS011;2107;52.306;10.484;2023-09-12T00:13:36;0.00;;;0.00;;
4186;SDS011;2107;52.306;10.484;2023-09-12T00:16:04;0.00;;;0.00;;
4186;SDS011;2107;52.306;10.484;2023-09-12T00:18:31;0.00;;;0.00;;
4186;SDS011;2107;52.306;10.484;2023-09-12T00:20:59;0.00;;;0.00;;
4186;SDS011;2107;52.306;10.484;2023-09-12T00:23:28;0.00;;;0.00;;
4186;SDS011;2107;52.306;10.484;2023-09-12T00:25:55;0.00;;;0.00;;
4186;SDS011;2107;52.306;10.484;2023-09-12T00:28:22;0.00;;;0.00;;
4186;SDS011;2107;52.306;10.484;2023-09-12T00:30:49;0.00;;;0.00;;
4186;SDS011;2107;52.306;10.484;2023-09-12T00:33:17;0.00;;;0.00;;
4186;SDS011;2107;52.306;10.484;2023-09-12T00:35:44;0.00;;;0.00;;
4186;SDS011;2107;52.306;10.484;2023-09-12T00:38:11;0.00;;;0.00;;
4186;SDS011;2107;52.306;10.484;2023-09-12T00:40:39;0.00;;;0.00;;
4186;SDS011;2107;52.306;10.484;2023-09-12T00:43:06;0.00;;;0.00;;
4186;SDS011;2107;52.306;10.484;2023-09-12T00:45:33;0.00;;;0.00;;
4186;SDS011;2107;52.306;10.484;2023-09-12T00:47:59;0.00;;;0.00;;
4186;SDS011;2107;52.306;10.484;2023-09-12T00:50:29;0.00;;;0.00;;
4186;SDS011;2107;52.306;10.484;2023-09-12T00:52:56;0.00;;;0.00;;
4186;SDS011;2107;52.306;10.484;2023-09-12T00:55:24;0.00;;;0.00;;
4186;SDS011;2107;52.306;10.484;2023-09-12T00:57:52;0.00;;;0.00;;
4186;SDS011;2107;52.306;10.484;2023-09-12T01:00:20;0.00;;;0.00;;
4186;SDS011;2107;52.306;10.484;2023-09-12T01:02:47;0.00;;;0.00;;
4186;SDS011;2107;52.306;10.484;2023-09-12T01:05:16;0.00;;;0.00;;
4186;SDS011;2107;52.306;10.484;2023-09-12T01:07:43;0.00;;;0.00;;
4186;SDS011;2107;52.306;10.484;2023-09-12T01:10:10;0.00;;;0.00;;
4186;SDS011;2107;52.306;10.484;2023-09-12T01:12:37;0.00;;;0.00;;
4186;SDS011;2107;52.306;10.484;2023-09-12T01:15:06;0.00;;;0.00;;
4186;SDS011;2107;52.306;10.484;2023-09-12T01:17:38;0.00;;;0.00;;
4186;SDS011;2107;52.306;10.484;2023-09-12T01:20:07;0.00;;;0.00;;
4186;SDS011;2107;52.306;10.484;2023-09-12T01:22:40;0.00;;;0.00;;
4186;SDS011;2107;52.306;10.484;2023-09-12T01:25:33;0.00;;;0.00;;
4186;SDS011;2107;52.306;10.484;2023-09-12T01:28:10;0.00;;;0.00;;
4186;SDS011;2107;52.306;10.484;2023-09-12T01:30:40;0.00;;;0.00;;
4186;SDS011;2107;52.306;10.484;2023-09-12T01:33:09;0.00;;;0.00;;
4186;SDS011;2107;52.306;10.484;2023-09-12T01:35:36;0.00;;;0.00;;
4186;SDS011;2107;52.306;10.484;2023-09-12T01:38:03;0.00;;;0.00;;
4186;SDS011;2107;52.306;10.484;2023-09-12T01:40:33;0.00;;;0.00;;
4186;SDS011;2107;52.306;10.484;2023-09-12T01:43:04;0.00;;;0.00;;
4186;SDS011;2107;52.306;10.484;2023-09-12T01:45:34;0.00;;;0.00;;
4186;SDS011;2107;52.306;10.484;2023-09-12T01:48:02;0.00;;;0.00;;
4186;SDS011;2107;52.306;10.484;2023-09-12T01:50:33;0.00;;;0.00;;
4186;SDS011;2107;52.306;10.484;2023-09-12T01:53:01;0.00;;;0.00;;
4186;SDS011;2107;52.306;10.484;2023-09-12T01:55:28;0.00;;;0.00;;
4186;SDS011;2107;52.306;10.484;2023-09-12T01:57:56;0.00;;;0.00;;
4186;SDS011;2107;52.306;10.484;2023-09-12T02:00:23;0.00;;;0.00;;
4186;SDS011;2107;52.306;10.484;2023-09-12T02:02:52;0.00;;;0.00;;
4186;SDS011;2107;52.306;10.484;2023-09-12T02:05:20;0.00;;;0.00;;
4186;SDS011;2107;52.306;10.484;2023-09-12T02:07:48;0.00;;;0.00;;
4186;SDS011;2107;52.306;10.484;2023-09-12T02:10:15;0.00;;;0.00;;
4186;SDS011;2107;52.306;10.484;2023-09-12T02:12:42;0.00;;;0.00;;
4186;SDS011;2107;52.306;10.484;2023-09-12T02:15:09;0.00;;;0.00;;
4186;SDS011;2107;52.306;10.484;2023-09-12T02:17:37;0.00;;;0.00;;
4186;SDS011;2107;52.306;10.484;2023-09-12T02:20:07;0.00;;;0.00;;
4186;SDS011;2107;52.306;10.484;2023-09-12T02:22:34;0.00;;;0.00;;
4186;SDS011;2107;52.306;10.484;2023-09-12T02:25:01;0.00;;;0.00;;
4186;SDS011;2107;52.306;10.484;2023-09-12T02:27:29;0.00;;;0.00;;
4186;SDS011;2107;52.306;10.484;2023-09-12T02:29:56;0.00;;;0.00;;
4186;SDS011;2107;52.306;10.484;2023-09-12T02:32:23;0.00;;;0.00;;
4186;SDS011;2107;52.306;10.484;2023-09-12T02:34:50;0.00;;;0.00;;
4186;SDS011;2107;52.306;10.484;2023-09-12T02:37:19;0.00;;;0.00;;
4186;SDS011;2107;52.306;10.484;2023-09-12T02:39:46;0.00;;;0.00;;
4186;SDS011;2107;52.306;10.484;2023-09-12T02:42:13;0.00;;;0.00;;
4186;SDS011;2107;52.306;10.484;2023-09-12T02:44:40;0.00;;;0.00;;
4186;SDS011;2107;52.306;10.484;2023-09-12T02:47:06;0.00;;;0.00;;
4186;SDS011;2107;52.306;10.484;2023-09-12T02:49:33;0.00;;;0.00;;
4186;SDS011;2107;52.306;10.484;2023-09-12T02:52:00;0.00;;;0.00;;
4186;SDS011;2107;52.306;10.484;2023-09-12T02:54:29;0.00;;;0.00;;
4186;SDS011;2107;52.306;10.484;2023-09-12T02:56:55;0.00;;;0.00;;
4186;SDS011;2107;52.306;10.484;2023-09-12T02:59:22;0.00;;;0.00;;
4186;SDS011;2107;52.306;10.484;2023-09-12T03:01:49;0.00;;;0.00;;
4186;SDS011;2107;52.306;10.484;2023-09-12T03:04:16;0.00;;;0.00;;
4186;SDS011;2107;52.306;10.484;2023-09-12T03:06:43;0.00;;;0.00;;
4186;SDS011;2107;52.306;10.484;2023-09-12T03:09:09;0.00;;;0.00;;
4186;SDS011;2107;52.306;10.484;2023-09-12T03:11:38;0.00;;;0.00;;
4186;SDS011;2107;52.306;10.484;2023-09-12T03:14:05;0.00;;;0.00;;
4186;SDS011;2107;52.306;10.484;2023-09-12T03:16:32;0.00;;;0.00;;
4186;SDS011;2107;52.306;10.484;2023-09-12T03:19:00;0.00;;;0.00;;
4186;SDS011;2107;52.306;10.484;2023-09-12T03:21:28;0.00;;;0.00;;
4186;SDS011;2107;52.306;10.484;2023-09-12T03:23:54;0.00;;;0.00;;
4186;SDS011;2107;52.306;10.484;2023-09-12T03:26:21;0.00;;;0.00;;
4186;SDS011;2107;52.306;10.484;2023-09-12T03:28:50;0.00;;;0.00;;
4186;SDS011;2107;52.306;10.484;2023-09-12T03:31:16;0.00;;;0.00;;
4186;SDS011;2107;52.306;10.484;2023-09-12T03:33:44;0.00;;;0.00;;
4186;SDS011;2107;52.306;10.484;2023-09-12T03:36:14;0.00;;;0.00;;
4186;SDS011;2107;52.306;10.484;2023-09-12T03:38:42;0.00;;;0.00;;
4186;SDS011;2107;52.306;10.484;2023-09-12T03:41:08;0.00;;;0.00;;
4186;SDS011;2107;52.306;10.484;2023-09-12T03:43:36;0.00;;;0.00;;
4186;SDS011;2107;52.306;10.484;2023-09-12T03:46:04;0.00;;;0.00;;
4186;SDS011;2107;52.306;10.484;2023-09-12T03:48:31;0.00;;;0.00;;
4186;SDS011;2107;52.306;10.484;2023-09-12T03:50:58;0.00;;;0.00;;
4186;SDS011;2107;52.306;10.484;2023-09-12T03:53:25;0.00;;;0.00;;
4186;SDS011;2107;52.306;10.484;2023-09-12T03:55:53;0.00;;;0.00;;
4186;SDS011;2107;52.306;10.484;2023-09-12T03:58:19;0.00;;;0.00;;
4186;SDS011;2107;52.306;10.484;2023-09-12T04:00:46;0.00;;;0.00;;
4186;SDS011;2107;52.306;10.484;2023-09-12T04:03:15;0.00;;;0.00;;
4186;SDS011;2107;52.306;10.484;2023-09-12T04:05:42;0.00;;;0.00;;
4186;SDS011;2107;52.306;10.484;2023-09-12T04:08:08;0.00;;;0.00;;
4186;SDS011;2107;52.306;10.484;2023-09-12T04:10:35;0.00;;;0.00;;
4186;SDS011;2107;52.306;10.484;2023-09-12T04:13:02;0.00;;;0.00;;
4186;SDS011;2107;52.306;10.484;2023-09-12T04:15:29;0.00;;;0.00;;
4186;SDS011;2107;52.306;10.484;2023-09-12T04:17:56;0.00;;;0.00;;
4186;SDS011;2107;52.306;10.484;2023-09-12T04:20:24;0.00;;;0.00;;
4186;SDS011;2107;52.306;10.484;2023-09-12T04:22:51;0.00;;;0.00;;
4186;SDS011;2107;52.306;10.484;2023-09-12T04:25:18;0.00;;;0.00;;
4186;SDS011;2107;52.306;10.484;2023-09-12T04:27:45;0.00;;;0.00;;
4186;SDS011;2107;52.306;10.484;2023-09-12T04:30:12;0.00;;;0.00;;
4186;SDS011;2107;52.306;10.484;2023-09-12T04:32:39;0.00;;;0.00;;
4186;SDS011;2107;52.306;10.484;2023-09-12T04:35:06;0.00;;;0.00;;
4186;SDS011;2107;52.306;10.484;2023-09-12T04:37:34;0.00;;;0.00;;
4186;SDS011;2107;52.306;10.484;2023-09-12T04:40:02;0.00;;;0.00;;
4186;SDS011;2107;52.306;10.484;2023-09-12T04:42:31;0.00;;;0.00;;
4186;SDS011;2107;52.306;10.484;2023-09-12T04:44:57;0.00;;;0.00;;
4186;SDS011;2107;52.306;10.484;2023-09-12T04:47:24;0.00;;;0.00;;
4186;SDS011;2107;52.306;10.484;2023-09-12T04:49:52;0.00;;;0.00;;
4186;SDS011;2107;52.306;10.484;2023-09-12T04:52:19;0.00;;;0.00;;
4186;SDS011;2107;52.306;10.484;2023-09-12T04:54:47;0.00;;;0.00;;
4186;SDS011;2107;52.306;10.484;2023-09-12T04:57:14;0.00;;;0.00;;
4186;SDS011;2107;52.306;10.484;2023-09-12T04:59:41;0.00;;;0.00;;
4186;SDS011;2107;52.306;10.484;2023-09-12T05:02:08;0.00;;;0.00;;
4186;SDS011;2107;52.306;10.484;2023-09-12T05:04:35;0.00;;;0.00;;
4186;SDS011;2107;52.306;10.484;2023-09-12T05:07:02;0.00;;;0.00;;
4186;SDS011;2107;52.306;10.484;2023-09-12T05:09:29;0.00;;;0.00;;
4186;SDS011;2107;52.306;10.484;2023-09-12T05:11:57;0.00;;;0.00;;
4186;SDS011;2107;52.306;10.484;2023-09-12T05:14:24;0.00;;;0.00;;
4186;SDS011;2107;52.306;10.484;2023-09-12T05:16:51;0.00;;;0.00;;
4186;SDS011;2107;52.306;10.484;2023-09-12T05:19:18;0.00;;;0.00;;
4186;SDS011;2107;52.306;10.484;2023-09-12T05:21:45;0.00;;;0.00;;
4186;SDS011;2107;52.306;10.484;2023-09-12T05:24:11;0.00;;;0.00;;
4186;SDS011;2107;52.306;10.484;2023-09-12T05:26:38;0.00;;;0.00;;
4186;SDS011;2107;52.306;10.484;2023-09-12T05:29:06;0.00;;;0.00;;
4186;SDS011;2107;52.306;10.484;2023-09-12T05:31:33;0.00;;;0.00;;
4186;SDS011;2107;52.306;10.484;2023-09-12T05:34:00;0.00;;;0.00;;
4186;SDS011;2107;52.306;10.484;2023-09-12T05:36:27;0.00;;;0.00;;
4186;SDS011;2107;52.306;10.484;2023-09-12T05:38:53;0.10;;;0.10;;
4186;SDS011;2107;52.306;10.484;2023-09-12T05:41:20;0.30;;;0.30;;
4186;SDS011;2107;52.306;10.484;2023-09-12T05:43:46;0.20;;;0.20;;
4186;SDS011;2107;52.306;10.484;2023-09-12T05:46:15;0.50;;;0.50;;
4186;SDS011;2107;52.306;10.484;2023-09-12T05:48:41;0.30;;;0.30;;
4186;SDS011;2107;52.306;10.484;2023-09-12T05:51:08;0.40;;;0.40;;
4186;SDS011;2107;52.306;10.484;2023-09-12T05:53:36;0.50;;;0.50;;
4186;SDS011;2107;52.306;10.484;2023-09-12T05:56:03;0.50;;;0.50;;
4186;SDS011;2107;52.306;10.484;2023-09-12T05:58:30;0.60;;;0.60;;
4186;SDS011;2107;52.306;10.484;2023-09-12T06:00:59;0.50;;;0.50;;
4186;SDS011;2107;52.306;10.484;2023-09-12T06:03:27;0.20;;;0.20;;
4186;SDS011;2107;52.306;10.484;2023-09-12T06:05:54;0.20;;;0.20;;
4186;SDS011;2107;52.306;10.484;2023-09-12T06:08:21;0.30;;;0.30;;
4186;SDS011;2107;52.306;10.484;2023-09-12T06:10:47;0.10;;;0.10;;
4186;SDS011;2107;52.306;10.484;2023-09-12T06:13:18;0.20;;;0.20;;
4186;SDS011;2107;52.306;10.484;2023-09-12T06:15:45;0.20;;;0.20;;
4186;SDS011;2107;52.306;10.484;2023-09-12T06:18:12;0.10;;;0.10;;
4186;SDS011;2107;52.306;10.484;2023-09-12T06:20:41;0.20;;;0.20;;
4186;SDS011;2107;52.306;10.484;2023-09-12T06:23:08;0.30;;;0.30;;
4186;SDS011;2107;52.306;10.484;2023-09-12T06:25:35;0.30;;;0.30;;
4186;SDS011;2107;52.306;10.484;2023-09-12T06:28:02;0.20;;;0.20;;
4186;SDS011;2107;52.306;10.484;2023-09-12T06:30:29;0.30;;;0.30;;
4186;SDS011;2107;52.306;10.484;2023-09-12T06:32:56;0.20;;;0.20;;
4186;SDS011;2107;52.306;10.484;2023-09-12T06:35:23;0.10;;;0.10;;
4186;SDS011;2107;52.306;10.484;2023-09-12T06:37:51;0.10;;;0.10;;
4186;SDS011;2107;52.306;10.484;2023-09-12T06:40:18;0.10;;;0.10;;
4186;SDS011;2107;52.306;10.484;2023-09-12T06:42:45;0.10;;;0.10;;
4186;SDS011;2107;52.306;10.484;2023-09-12T06:45:11;0.50;;;0.50;;
4186;SDS011;2107;52.306;10.484;2023-09-12T06:47:38;2.20;;;2.20;;
4186;SDS011;2107;52.306;10.484;2023-09-12T06:50:05;2.90;;;2.90;;
4186;SDS011;2107;52.306;10.484;2023-09-12T06:52:33;1.47;;;1.47;;
4186;SDS011;2107;52.306;10.484;2023-09-12T06:55:01;0.40;;;0.40;;
4186;SDS011;2107;52.306;10.484;2023-09-12T06:57:28;0.20;;;0.20;;
4186;SDS011;2107;52.306;10.484;2023-09-12T06:59:55;0.00;;;0.00;;
4186;SDS011;2107;52.306;10.484;2023-09-12T07:02:22;0.00;;;0.00;;
4186;SDS011;2107;52.306;10.484;2023-09-12T07:04:48;0.00;;;0.00;;
4186;SDS011;2107;52.306;10.484;2023-09-12T07:07:15;0.00;;;0.00;;
4186;SDS011;2107;52.306;10.484;2023-09-12T07:09:42;0.00;;;0.00;;
4186;SDS011;2107;52.306;10.484;2023-09-12T07:12:10;0.00;;;0.00;;
4186;SDS011;2107;52.306;10.484;2023-09-12T07:14:37;0.00;;;0.00;;
4186;SDS011;2107;52.306;10.484;2023-09-12T07:17:05;0.00;;;0.00;;
4186;SDS011;2107;52.306;10.484;2023-09-12T07:19:32;0.00;;;0.00;;
4186;SDS011;2107;52.306;10.484;2023-09-12T07:22:00;0.00;;;0.00;;
4186;SDS011;2107;52.306;10.484;2023-09-12T07:24:27;0.00;;;0.00;;
4186;SDS011;2107;52.306;10.484;2023-09-12T07:26:54;0.00;;;0.00;;
4186;SDS011;2107;52.306;10.484;2023-09-12T07:29:22;0.00;;;0.00;;
4186;SDS011;2107;52.306;10.484;2023-09-12T07:31:51;0.00;;;0.00;;
4186;SDS011;2107;52.306;10.484;2023-09-12T07:34:18;0.00;;;0.00;;
4186;SDS011;2107;52.306;10.484;2023-09-12T07:36:45;0.00;;;0.00;;
4186;SDS011;2107;52.306;10.484;2023-09-12T07:39:12;0.00;;;0.00;;
4186;SDS011;2107;52.306;10.484;2023-09-12T07:41:39;0.00;;;0.00;;
4186;SDS011;2107;52.306;10.484;2023-09-12T07:44:06;0.00;;;0.00;;
4186;SDS011;2107;52.306;10.484;2023-09-12T07:46:37;0.00;;;0.00;;
4186;SDS011;2107;52.306;10.484;2023-09-12T07:49:04;0.00;;;0.00;;
4186;SDS011;2107;52.306;10.484;2023-09-12T07:51:33;0.00;;;0.00;;
4186;SDS011;2107;52.306;10.484;2023-09-12T07:54:00;0.00;;;0.00;;
4186;SDS011;2107;52.306;10.484;2023-09-12T07:56:27;0.00;;;0.00;;
4186;SDS011;2107;52.306;10.484;2023-09-12T07:58:53;0.00;;;0.00;;
4186;SDS011;2107;52.306;10.484;2023-09-12T08:01:21;0.00;;;0.00;;
4186;SDS011;2107;52.306;10.484;2023-09-12T08:03:49;0.00;;;0.00;;
4186;SDS011;2107;52.306;10.484;2023-09-12T08:06:16;0.00;;;0.00;;
4186;SDS011;2107;52.306;10.484;2023-09-12T08:08:43;0.00;;;0.00;;
4186;SDS011;2107;52.306;10.484;2023-09-12T08:11:10;0.00;;;0.00;;
4186;SDS011;2107;52.306;10.484;2023-09-12T08:13:37;0.00;;;0.00;;
4186;SDS011;2107;52.306;10.484;2023-09-12T08:16:04;0.00;;;0.00;;
4186;SDS011;2107;52.306;10.484;2023-09-12T08:18:31;0.00;;;0.00;;
4186;SDS011;2107;52.306;10.484;2023-09-12T08:20:59;0.00;;;0.00;;
4186;SDS011;2107;52.306;10.484;2023-09-12T08:23:26;0.00;;;0.00;;
4186;SDS011;2107;52.306;10.484;2023-09-12T08:25:52;0.00;;;0.00;;
4186;SDS011;2107;52.306;10.484;2023-09-12T08:28:19;0.00;;;0.00;;
4186;SDS011;2107;52.306;10.484;2023-09-12T08:30:46;0.00;;;0.00;;
4186;SDS011;2107;52.306;10.484;2023-09-12T08:33:13;0.00;;;0.00;;
4186;SDS011;2107;52.306;10.484;2023-09-12T08:35:40;0.00;;;0.00;;
4186;SDS011;2107;52.306;10.484;2023-09-12T08:38:08;0.00;;;0.00;;
4186;SDS011;2107;52.306;10.484;2023-09-12T08:40:35;0.00;;;0.00;;
4186;SDS011;2107;52.306;10.484;2023-09-12T08:43:03;0.00;;;0.00;;
4186;SDS011;2107;52.306;10.484;2023-09-12T08:45:30;0.10;;;0.10;;
4186;SDS011;2107;52.306;10.484;2023-09-12T08:47:58;0.00;;;0.00;;
4186;SDS011;2107;52.306;10.484;2023-09-12T08:50:27;0.10;;;0.10;;
4186;SDS011;2107;52.306;10.484;2023-09-12T08:52:58;0.10;;;0.10;;
4186;SDS011;2107;52.306;10.484;2023-09-12T08:55:26;0.20;;;0.20;;
4186;SDS011;2107;52.306;10.484;2023-09-12T08:57:54;0.50;;;0.50;;
4186;SDS011;2107;52.306;10.484;2023-09-12T09:00:22;0.93;;;0.93;;
4186;SDS011;2107;52.306;10.484;2023-09-12T09:02:50;1.10;;;1.10;;
4186;SDS011;2107;52.306;10.484;2023-09-12T09:05:17;1.60;;;1.60;;
4186;SDS011;2107;52.306;10.484;2023-09-12T09:07:48;1.60;;;1.60;;
4186;SDS011;2107;52.306;10.484;2023-09-12T09:10:16;1.80;;;1.80;;
4186;SDS011;2107;52.306;10.484;2023-09-12T09:12:45;2.30;;;2.30;;
4186;SDS011;2107;52.306;10.484;2023-09-12T09:15:25;2.30;;;2.30;;
4186;SDS011;2107;52.306;10.484;2023-09-12T09:17:54;2.10;;;2.10;;
4186;SDS011;2107;52.306;10.484;2023-09-12T09:20:22;2.00;;;2.00;;
4186;SDS011;2107;52.306;10.484;2023-09-12T09:23:00;2.10;;;2.10;;
4186;SDS011;2107;52.306;10.484;2023-09-12T09:25:30;2.00;;;2.00;;
4186;SDS011;2107;52.306;10.484;2023-09-12T09:27:59;2.13;;;2.13;;
4186;SDS011;2107;52.306;10.484;2023-09-12T09:30:39;2.03;;;2.03;;
4186;SDS011;2107;52.306;10.484;2023-09-12T09:33:07;2.13;;;2.13;;
4186;SDS011;2107;52.306;10.484;2023-09-12T09:35:34;2.20;;;2.20;;
4186;SDS011;2107;52.306;10.484;2023-09-12T09:38:01;2.13;;;2.13;;
4186;SDS011;2107;52.306;10.484;2023-09-12T09:40:32;1.53;;;1.53;;
4186;SDS011;2107;52.306;10.484;2023-09-12T09:43:01;2.33;;;2.33;;
4186;SDS011;2107;52.306;10.484;2023-09-12T09:45:28;1.20;;;1.20;;
4186;SDS011;2107;52.306;10.484;2023-09-12T09:47:56;1.10;;;1.10;;
4186;SDS011;2107;52.306;10.484;2023-09-12T09:50:24;1.00;;;1.00;;
4186;SDS011;2107;52.306;10.484;2023-09-12T09:52:53;0.90;;;0.90;;
4186;SDS011;2107;52.306;10.484;2023-09-12T09:55:23;0.87;;;0.87;;
4186;SDS011;2107;52.306;10.484;2023-09-12T09:57:50;0.80;;;0.80;;
4186;SDS011;2107;52.306;10.484;2023-09-12T10:00:20;0.60;;;0.60;;
4186;SDS011;2107;52.306;10.484;2023-09-12T10:02:49;0.70;;;0.70;;
4186;SDS011;2107;52.306;10.484;2023-09-12T10:05:16;0.80;;;0.80;;
4186;SDS011;2107;52.306;10.484;2023-09-12T10:07:44;0.70;;;0.70;;
4186;SDS011;2107;52.306;10.484;2023-09-12T10:10:14;1.00;;;1.00;;
4186;SDS011;2107;52.306;10.484;2023-09-12T10:12:43;0.80;;;0.80;;
4186;SDS011;2107;52.306;10.484;2023-09-12T10:15:15;1.00;;;1.00;;
4186;SDS011;2107;52.306;10.484;2023-09-12T10:17:54;0.90;;;0.90;;
4186;SDS011;2107;52.306;10.484;2023-09-12T10:20:24;1.00;;;1.00;;
4186;SDS011;2107;52.306;10.484;2023-09-12T10:22:57;1.10;;;1.10;;
4186;SDS011;2107;52.306;10.484;2023-09-12T10:25:33;1.00;;;1.00;;
4186;SDS011;2107;52.306;10.484;2023-09-12T10:28:02;1.30;;;1.30;;
4186;SDS011;2107;52.306;10.484;2023-09-12T10:30:32;1.30;;;1.30;;
4186;SDS011;2107;52.306;10.484;2023-09-12T10:33:00;1.00;;;1.00;;
4186;SDS011;2107;52.306;10.484;2023-09-12T10:35:29;1.00;;;1.00;;
4186;SDS011;2107;52.306;10.484;2023-09-12T10:37:58;0.90;;;0.90;;
4186;SDS011;2107;52.306;10.484;2023-09-12T10:40:29;0.90;;;0.90;;
4186;SDS011;2107;52.306;10.484;2023-09-12T10:42:57;1.50;;;1.50;;
4186;SDS011;2107;52.306;10.484;2023-09-12T10:45:26;1.00;;;1.00;;
4186;SDS011;2107;52.306;10.484;2023-09-12T10:47:55;1.13;;;1.13;;
4186;SDS011;2107;52.306;10.484;2023-09-12T10:50:22;0.90;;;0.90;;
4186;SDS011;2107;52.306;10.484;2023-09-12T10:52:49;1.00;;;1.00;;
4186;SDS011;2107;52.306;10.484;2023-09-12T10:55:17;0.73;;;0.73;;
4186;SDS011;2107;52.306;10.484;2023-09-12T10:58:00;0.93;;;0.93;;
4186;SDS011;2107;52.306;10.484;2023-09-12T11:00:28;0.90;;;0.90;;
4186;SDS011;2107;52.306;10.484;2023-09-12T11:02:59;0.93;;;0.93;;
4186;SDS011;2107;52.306;10.484;2023-09-12T11:05:52;0.80;;;0.80;;
4186;SDS011;2107;52.306;10.484;2023-09-12T11:08:19;1.10;;;1.10;;
4186;SDS011;2107;52.306;10.484;2023-09-12T11:13:45;0.80;;;0.80;;
4186;SDS011;2107;52.306;10.484;2023-09-12T11:16:12;0.90;;;0.90;;
4186;SDS011;2107;52.306;10.484;2023-09-12T11:21:43;1.40;;;1.40;;
4186;SDS011;2107;52.306;10.484;2023-09-12T11:24:11;1.40;;;1.40;;
4186;SDS011;2107;52.306;10.484;2023-09-12T11:26:56;1.57;;;1.57;;
4186;SDS011;2107;52.306;10.484;2023-09-12T11:29:28;1.30;;;1.30;;
4186;SDS011;2107;52.306;10.484;2023-09-12T11:31:56;1.37;;;1.37;;
4186;SDS011;2107;52.306;10.484;2023-09-12T11:34:26;1.30;;;1.30;;
4186;SDS011;2107;52.306;10.484;2023-09-12T11:36:56;1.10;;;1.10;;
4186;SDS011;2107;52.306;10.484;2023-09-12T11:39:26;1.23;;;1.23;;
4186;SDS011;2107;52.306;10.484;2023-09-12T11:41:55;1.23;;;1.23;;
4186;SDS011;2107;52.306;10.484;2023-09-12T11:44:22;1.10;;;1.10;;
4186;SDS011;2107;52.306;10.484;2023-09-12T11:46:50;1.20;;;1.20;;
4186;SDS011;2107;52.306;10.484;2023-09-12T11:49:17;1.30;;;1.30;;
4186;SDS011;2107;52.306;10.484;2023-09-12T11:51:49;1.10;;;1.10;;
4186;SDS011;2107;52.306;10.484;2023-09-12T11:54:17;0.90;;;0.90;;
4186;SDS011;2107;52.306;10.484;2023-09-12T11:56:46;1.20;;;1.20;;
4186;SDS011;2107;52.306;10.484;2023-09-12T11:59:13;1.00;;;1.00;;
4186;SDS011;2107;52.306;10.484;2023-09-12T12:01:41;1.10;;;1.10;;
4186;SDS011;2107;52.306;10.484;2023-09-12T12:04:08;1.60;;;1.60;;
4186;SDS011;2107;52.306;10.484;2023-09-12T12:06:35;1.20;;;1.20;;
4186;SDS011;2107;52.306;10.484;2023-09-12T12:09:04;1.50;;;1.50;;
4186;SDS011;2107;52.306;10.484;2023-09-12T12:11:32;1.50;;;1.50;;
4186;SDS011;2107;52.306;10.484;2023-09-12T12:14:08;1.20;;;1.20;;
4186;SDS011;2107;52.306;10.484;2023-09-12T12:16:37;1.10;;;1.10;;
4186;SDS011;2107;52.306;10.484;2023-09-12T12:19:03;1.00;;;1.00;;
4186;SDS011;2107;52.306;10.484;2023-09-12T12:21:30;1.30;;;1.30;;
4186;SDS011;2107;52.306;10.484;2023-09-12T12:23:58;1.10;;;1.10;;
4186;SDS011;2107;52.306;10.484;2023-09-12T12:26:26;1.40;;;1.40;;
4186;SDS011;2107;52.306;10.484;2023-09-12T12:28:53;1.50;;;1.50;;
4186;SDS011;2107;52.306;10.484;2023-09-12T12:31:20;1.60;;;1.60;;
4186;SDS011;2107;52.306;10.484;2023-09-12T12:33:49;1.60;;;1.60;;
4186;SDS011;2107;52.306;10.484;2023-09-12T12:36:16;1.70;;;1.70;;
4186;SDS011;2107;52.306;10.484;2023-09-12T12:38:43;1.30;;;1.30;;
4186;SDS011;2107;52.306;10.484;2023-09-12T12:41:12;1.90;;;1.90;;
4186;SDS011;2107;52.306;10.484;2023-09-12T12:43:42;1.80;;;1.80;;
4186;SDS011;2107;52.306;10.484;2023-09-12T12:46:10;1.30;;;1.30;;
4186;SDS011;2107;52.306;10.484;2023-09-12T12:48:37;1.60;;;1.60;;
4186;SDS011;2107;52.306;10.484;2023-09-12T12:51:13;1.80;;;1.80;;
4186;SDS011;2107;52.306;10.484;2023-09-12T12:53:43;1.40;;;1.40;;
4186;SDS011;2107;52.306;10.484;2023-09-12T12:56:12;1.40;;;1.40;;
4186;SDS011;2107;52.306;10.484;2023-09-12T12:58:46;1.20;;;1.20;;
4186;SDS011;2107;52.306;10.484;2023-09-12T13:01:14;1.53;;;1.53;;
4186;SDS011;2107;52.306;10.484;2023-09-12T13:03:42;1.43;;;1.43;;
4186;SDS011;2107;52.306;10.484;2023-09-12T13:06:09;1.40;;;1.40;;
4186;SDS011;2107;52.306;10.484;2023-09-12T13:08:39;1.23;;;1.23;;
4186;SDS011;2107;52.306;10.484;2023-09-12T13:11:07;1.33;;;1.33;;
4186;SDS011;2107;52.306;10.484;2023-09-12T13:13:34;1.20;;;1.20;;
4186;SDS011;2107;52.306;10.484;2023-09-12T13:16:02;1.10;;;1.10;;
4186;SDS011;2107;52.306;10.484;2023-09-12T13:18:30;0.90;;;0.90;;
4186;SDS011;2107;52.306;10.484;2023-09-12T13:20:58;0.90;;;0.90;;
4186;SDS011;2107;52.306;10.484;2023-09-12T13:23:25;1.03;;;1.03;;
4186;SDS011;2107;52.306;10.484;2023-09-12T13:25:52;0.80;;;0.80;;
4186;SDS011;2107;52.306;10.484;2023-09-12T13:28:19;1.20;;;1.20;;
4186;SDS011;2107;52.306;10.484;2023-09-12T13:30:46;0.80;;;0.80;;
4186;SDS011;2107;52.306;10.484;2023-09-12T13:33:14;0.80;;;0.80;;
4186;SDS011;2107;52.306;10.484;2023-09-12T13:35:41;0.60;;;0.60;;
4186;SDS011;2107;52.306;10.484;2023-09-12T13:38:08;0.63;;;0.63;;
4186;SDS011;2107;52.306;10.484;2023-09-12T13:40:36;0.90;;;0.90;;
4186;SDS011;2107;52.306;10.484;2023-09-12T13:43:04;0.80;;;0.80;;
4186;SDS011;2107;52.306;10.484;2023-09-12T13:45:31;0.90;;;0.90;;
4186;SDS011;2107;52.306;10.484;2023-09-12T13:47:57;0.80;;;0.80;;
4186;SDS011;2107;52.306;10.484;2023-09-12T13:50:26;0.80;;;0.80;;
4186;SDS011;2107;52.306;10.484;2023-09-12T13:52:54;0.70;;;0.70;;
4186;SDS011;2107;52.306;10.484;2023-09-12T13:55:21;0.73;;;0.73;;
4186;SDS011;2107;52.306;10.484;2023-09-12T13:57:48;0.80;;;0.80;;
4186;SDS011;2107;52.306;10.484;2023-09-12T14:00:15;0.77;;;0.77;;
4186;SDS011;2107;52.306;10.484;2023-09-12T14:02:42;0.90;;;0.90;;
4186;SDS011;2107;52.306;10.484;2023-09-12T14:05:09;1.00;;;1.00;;
4186;SDS011;2107;52.306;10.484;2023-09-12T14:07:37;0.80;;;0.80;;
4186;SDS011;2107;52.306;10.484;2023-09-12T14:10:05;0.80;;;0.80;;
4186;SDS011;2107;52.306;10.484;2023-09-12T14:12:33;0.70;;;0.70;;
4186;SDS011;2107;52.306;10.484;2023-09-12T14:15:00;0.90;;;0.90;;
4186;SDS011;2107;52.306;10.484;2023-09-12T14:17:28;0.83;;;0.83;;
4186;SDS011;2107;52.306;10.484;2023-09-12T14:19:55;0.80;;;0.80;;
4186;SDS011;2107;52.306;10.484;2023-09-12T14:22:21;0.73;;;0.73;;
4186;SDS011;2107;52.306;10.484;2023-09-12T14:24:50;0.70;;;0.70;;
4186;SDS011;2107;52.306;10.484;2023-09-12T14:27:16;0.90;;;0.90;;
4186;SDS011;2107;52.306;10.484;2023-09-12T14:29:43;0.80;;;0.80;;
4186;SDS011;2107;52.306;10.484;2023-09-12T14:32:13;0.87;;;0.87;;
4186;SDS011;2107;52.306;10.484;2023-09-12T14:34:40;0.90;;;0.90;;
4186;SDS011;2107;52.306;10.484;2023-09-12T14:37:07;0.80;;;0.80;;
4186;SDS011;2107;52.306;10.484;2023-09-12T14:39:34;0.87;;;0.87;;
4186;SDS011;2107;52.306;10.484;2023-09-12T14:42:02;0.60;;;0.60;;
4186;SDS011;2107;52.306;10.484;2023-09-12T14:44:33;0.67;;;0.67;;
4186;SDS011;2107;52.306;10.484;2023-09-12T14:47:00;0.63;;;0.63;;
4186;SDS011;2107;52.306;10.484;2023-09-12T14:49:27;1.00;;;1.00;;
4186;SDS011;2107;52.306;10.484;2023-09-12T14:51:54;0.90;;;0.90;;
4186;SDS011;2107;52.306;10.484;2023-09-12T14:54:21;0.80;;;0.80;;
4186;SDS011;2107;52.306;10.484;2023-09-12T14:56:48;1.00;;;1.00;;
4186;SDS011;2107;52.306;10.484;2023-09-12T14:59:17;1.10;;;1.10;;
4186;SDS011;2107;52.306;10.484;2023-09-12T15:01:45;0.90;;;0.90;;
4186;SDS011;2107;52.306;10.484;2023-09-12T15:04:12;1.03;;;1.03;;
4186;SDS011;2107;52.306;10.484;2023-09-12T15:06:39;1.17;;;1.17;;
4186;SDS011;2107;52.306;10.484;2023-09-12T15:09:06;0.90;;;0.90;;
4186;SDS011;2107;52.306;10.484;2023-09-12T15:11:32;1.00;;;1.00;;